Time;durP1;ratioP1;P1;durP2;ratioP2;P2;SDS_P1;SDS_P2;PMS_P1;PMS_P2;Temp;Humidity;BMP_temperature;BMP_pressure;BME280_temperature;BME280_humidity;BME280_pressure;Samples;Min_cycle;Max_cycle;Signal;HPM_P1;HPM_P2
2021/05/27 00:00:59;;;;;;;4.30;1.83;;;;;;;11.63;49.52;98768.09;125610;1101;102985;-74
2021/05/27 00:03:27;;;;;;;5.80;2.30;;;;;;;11.66;49.38;98772.31;125547;1104;103104;-73
2021/05/27 00:05:56;;;;;;;2.30;1.73;;;;;;;11.68;49.55;98779.22;125615;1104;103077;-73
2021/05/27 00:08:28;;;;;;;6.43;1.70;;;;;;;11.71;49.53;98775.45;125614;1104;102984;-73
2021/05/27 00:10:57;;;;;;;8.00;1.97;;;;;;;11.73;49.52;98786.83;125603;1104;103193;-74
2021/05/27 00:13:31;;;;;;;7.73;2.43;;;;;;;11.78;49.37;98783.80;125946;1101;103487;-74
2021/05/27 00:15:59;;;;;;;5.23;1.90;;;;;;;11.80;49.57;98782.69;125638;1096;102981;-74
2021/05/27 00:18:28;;;;;;;3.57;1.90;;;;;;;11.86;49.52;98781.33;125975;1101;103079;-74
2021/05/27 00:20:56;;;;;;;3.67;1.80;;;;;;;11.89;49.48;98783.73;125914;1101;103463;-74
2021/05/27 00:23:24;;;;;;;5.15;1.70;;;;;;;11.91;49.47;98785.32;125597;1104;103042;-73
2021/05/27 00:25:52;;;;;;;5.67;2.13;;;;;;;11.93;49.42;98784.34;125488;1104;103466;-74
2021/05/27 00:28:21;;;;;;;6.13;1.87;;;;;;;11.94;49.48;98783.38;126013;1101;102982;-73
2021/05/27 00:30:49;;;;;;;4.53;2.40;;;;;;;11.95;49.52;98775.23;125518;1104;103004;-73
2021/05/27 00:33:17;;;;;;;5.67;1.60;;;;;;;11.96;49.49;98776.93;125623;1096;103138;-74
2021/05/27 00:35:45;;;;;;;7.30;2.07;;;;;;;11.99;49.63;98781.18;125483;1104;103241;-75
2021/05/27 00:38:14;;;;;;;7.40;2.27;;;;;;;12.00;49.46;98773.07;125433;1104;102988;-73
2021/05/27 00:40:42;;;;;;;5.30;2.00;;;;;;;12.02;49.49;98781.78;125608;1104;102983;-74
2021/05/27 00:43:12;;;;;;;3.73;1.93;;;;;;;12.03;49.76;98788.81;126015;1101;103005;-74
2021/05/27 00:45:40;;;;;;;4.67;1.90;;;;;;;12.04;49.66;98779.84;125582;1104;102987;-74
2021/05/27 00:48:56;;;;;;;3.47;1.90;;;;;;;12.06;49.69;98783.22;125981;1101;103102;-75
2021/05/27 00:51:01;;;;;;;5.37;1.93;;;;;;;12.13;50.32;98777.38;125440;1104;102989;-75
2021/05/27 00:53:31;;;;;;;4.90;1.80;;;;;;;12.19;49.73;98776.88;125839;1101;103138;-75
2021/05/27 00:55:59;;;;;;;4.67;2.20;;;;;;;12.22;49.49;98781.95;125495;1104;103131;-75
2021/05/27 00:58:30;;;;;;;3.77;1.67;;;;;;;12.21;49.83;98783.75;125923;1101;101946;-75
2021/05/27 01:00:59;;;;;;;4.65;1.80;;;;;;;12.20;49.79;98787.39;125534;1104;103186;-74
2021/05/27 01:03:28;;;;;;;4.47;2.17;;;;;;;12.20;49.82;98795.39;125496;1096;103052;-74
2021/05/27 01:05:56;;;;;;;4.57;1.67;;;;;;;12.18;49.98;98785.84;126469;1104;100967;-78
2021/05/27 01:08:24;;;;;;;5.60;2.17;;;;;;;12.19;49.81;98787.53;125895;1096;103098;-75
2021/05/27 01:10:52;;;;;;;5.53;2.43;;;;;;;12.18;49.79;98783.18;125624;1104;103075;-76
2021/05/27 01:13:25;;;;;;;3.30;2.20;;;;;;;12.14;49.70;98785.23;125604;1096;103114;-76
2021/05/27 01:15:58;;;;;;;6.17;2.27;;;;;;;12.13;49.56;98790.72;125919;1101;103113;-76
2021/05/27 01:18:27;;;;;;;4.60;2.30;;;;;;;12.09;49.79;98795.44;125523;1097;103013;-76
2021/05/27 01:20:58;;;;;;;4.53;2.27;;;;;;;12.07;49.79;98800.05;125878;1101;103594;-79
2021/05/27 01:23:35;;;;;;;4.55;1.60;;;;;;;12.05;49.97;98794.00;126060;1096;103007;-76
2021/05/27 01:26:06;;;;;;;4.60;1.90;;;;;;;12.05;50.00;98796.66;125510;1097;103010;-76
2021/05/27 01:28:37;;;;;;;5.27;2.00;;;;;;;12.06;49.97;98804.55;125551;1101;103052;-75
2021/05/27 01:31:08;;;;;;;4.83;2.00;;;;;;;12.08;49.97;98793.75;126002;1101;103007;-73
2021/05/27 01:33:41;;;;;;;2.35;1.40;;;;;;;12.08;50.07;98799.08;126005;1096;103079;-73
2021/05/27 01:36:09;;;;;;;3.63;1.30;;;;;;;12.11;50.03;98803.33;126005;1101;102985;-73
2021/05/27 01:38:42;;;;;;;5.28;1.75;;;;;;;12.11;50.09;98803.33;125910;1096;104468;-74
2021/05/27 01:41:10;;;;;;;6.37;2.00;;;;;;;12.13;50.04;98807.54;125590;1096;103135;-74
2021/05/27 01:43:39;;;;;;;3.63;1.50;;;;;;;12.12;50.08;98800.52;125978;1101;103009;-74
2021/05/27 01:46:07;;;;;;;5.00;1.80;;;;;;;12.10;50.08;98797.13;125940;1101;103077;-74
2021/05/27 01:48:35;;;;;;;5.13;1.50;;;;;;;12.09;50.21;98799.94;126102;1101;102911;-74
2021/05/27 01:51:11;;;;;;;5.70;2.15;;;;;;;12.06;50.27;98796.55;125989;1101;103240;-73
2021/05/27 01:53:43;;;;;;;4.18;1.95;;;;;;;12.05;50.20;98794.86;125942;1101;103030;-73
2021/05/27 01:56:13;;;;;;;3.13;1.30;;;;;;;12.03;50.32;98799.47;125524;1104;103012;-73
2021/05/27 01:58:42;;;;;;;4.53;1.70;;;;;;;12.02;50.31;98794.28;125921;1096;103048;-73
2021/05/27 02:01:10;;;;;;;2.67;1.40;;;;;;;12.01;50.54;98797.92;125960;1101;103037;-72
2021/05/27 02:03:38;;;;;;;5.35;1.75;;;;;;;11.99;50.36;98798.03;125531;1104;103114;-73
2021/05/27 02:06:07;;;;;;;4.00;1.57;;;;;;;11.98;50.35;98800.81;125973;1101;103059;-72
2021/05/27 02:08:35;;;;;;;3.57;1.37;;;;;;;11.98;50.49;98800.81;125516;1104;103007;-73
2021/05/27 02:11:03;;;;;;;4.30;1.50;;;;;;;11.99;50.52;98798.03;125999;1101;103013;-73
2021/05/27 02:13:35;;;;;;;7.57;1.97;;;;;;;12.00;50.37;98801.56;125628;1104;103029;-74
2021/05/27 02:16:04;;;;;;;5.40;1.80;;;;;;;12.00;50.56;98807.72;125518;1104;103131;-73
2021/05/27 02:18:33;;;;;;;3.97;1.90;;;;;;;12.01;50.47;98809.41;125938;1096;103553;-75
2021/05/27 02:21:05;;;;;;;3.87;1.53;;;;;;;12.00;50.55;98818.39;125551;1104;102987;-77
2021/05/27 02:23:38;;;;;;;4.50;1.60;;;;;;;11.94;50.57;98816.19;125987;1101;103053;-74
2021/05/27 02:26:06;;;;;;;6.00;1.85;;;;;;;11.80;50.40;98819.16;125593;1104;102956;-73
2021/05/27 02:28:34;;;;;;;5.87;1.73;;;;;;;11.73;50.67;98826.80;125611;1101;103118;-73
2021/05/27 02:31:03;;;;;;;3.63;1.70;;;;;;;11.64;50.54;98817.73;125970;1096;103118;-73
2021/05/27 02:33:32;;;;;;;4.80;1.87;;;;;;;11.43;50.57;98825.65;125507;1104;102982;-72
2021/05/27 02:36:02;;;;;;;10.17;1.83;;;;;;;11.14;50.67;98815.52;125517;1104;103100;-73
2021/05/27 02:38:30;;;;;;;4.50;2.30;;;;;;;10.90;51.22;98816.45;125494;1096;103059;-73
2021/05/27 02:41:03;;;;;;;4.20;2.10;;;;;;;10.67;51.04;98821.77;125515;1104;103011;-72
2021/05/27 02:43:33;;;;;;;7.00;2.15;;;;;;;10.43;51.06;98816.52;125514;1104;102982;-74
2021/05/27 02:46:06;;;;;;;5.57;2.43;;;;;;;10.35;51.20;98816.21;125552;1101;103142;-74
2021/05/27 02:48:53;;;;;;;5.43;2.03;;;;;;;10.28;51.57;98827.31;125911;1096;103009;-73
2021/05/27 02:51:27;;;;;;;8.57;2.60;;;;;;;10.31;51.63;98828.05;125999;1101;102980;-74
2021/05/27 02:53:55;;;;;;;7.07;2.20;;;;;;;10.36;51.60;98813.45;126273;1101;102769;-73
2021/05/27 02:56:23;;;;;;;3.73;1.93;;;;;;;10.40;51.87;98828.22;125600;1104;103010;-73
2021/05/27 02:58:54;;;;;;;4.30;1.87;;;;;;;10.49;51.73;98809.88;125537;1104;102981;-73
2021/05/27 03:01:23;;;;;;;3.40;1.80;;;;;;;10.60;51.81;98817.88;125750;1101;103105;-73
2021/05/27 03:03:55;;;;;;;2.67;1.50;;;;;;;10.72;52.03;98821.41;125575;1104;103091;-73
2021/05/27 03:06:24;;;;;;;5.63;1.77;;;;;;;10.82;52.07;98811.75;125608;1104;103046;-74
2021/05/27 03:08:55;;;;;;;6.33;1.50;;;;;;;10.93;52.13;98815.39;125616;1104;103432;-75
2021/05/27 03:11:27;;;;;;;6.25;1.55;;;;;;;11.04;52.21;98817.20;125672;1104;102997;-75
2021/05/27 03:13:56;;;;;;;4.83;1.70;;;;;;;11.13;52.16;98811.16;125697;1104;103056;-74
2021/05/27 03:16:24;;;;;;;4.30;1.73;;;;;;;11.20;52.33;98806.19;125672;1097;103455;-73
2021/05/27 03:18:53;;;;;;;2.27;1.60;;;;;;;11.26;52.28;98803.86;125644;1104;103072;-75
2021/05/27 03:21:25;;;;;;;9.50;2.57;;;;;;;11.35;52.26;98812.09;125586;1104;103056;-74
2021/05/27 03:23:54;;;;;;;5.27;1.77;;;;;;;11.41;52.22;98816.93;125595;1104;103074;-75
2021/05/27 03:26:22;;;;;;;2.20;1.37;;;;;;;11.47;52.40;98808.45;125635;1104;103053;-74
2021/05/27 03:28:50;;;;;;;3.60;1.53;;;;;;;11.54;52.41;98811.45;125887;1101;103456;-75
2021/05/27 03:31:19;;;;;;;4.10;1.50;;;;;;;11.60;52.38;98813.63;125673;1104;103089;-74
2021/05/27 03:33:47;;;;;;;6.77;1.97;;;;;;;11.66;52.28;98818.46;125885;1101;103026;-74
2021/05/27 03:36:15;;;;;;;4.87;1.70;;;;;;;11.71;52.44;98821.60;125567;1104;103072;-73
2021/05/27 03:38:44;;;;;;;2.23;1.50;;;;;;;11.77;52.63;98820.25;125598;1096;103010;-76
2021/05/27 03:41:12;;;;;;;5.40;1.87;;;;;;;11.82;52.28;98827.88;125547;1104;103077;-74
2021/05/27 03:43:40;;;;;;;3.60;1.50;;;;;;;11.87;52.56;98817.66;125624;1104;103143;-75
2021/05/27 03:46:08;;;;;;;5.70;1.63;;;;;;;11.90;52.56;98820.94;125533;1104;103096;-77
2021/05/27 03:48:37;;;;;;;6.73;1.40;;;;;;;11.96;52.39;98822.23;125546;1104;102979;-76
2021/05/27 03:51:06;;;;;;;5.73;1.53;;;;;;;12.00;52.44;98826.38;125557;1104;103078;-76
2021/05/27 03:53:34;;;;;;;13.03;2.03;;;;;;;12.05;52.44;98831.32;125980;1096;103106;-74
2021/05/27 03:56:04;;;;;;;3.30;1.33;;;;;;;12.08;52.55;98825.73;125603;1096;103206;-75
2021/05/27 04:01:22;;;;;;;4.43;1.50;;;;;;;12.18;52.52;98825.84;125961;1101;102981;-77
2021/05/27 04:07:16;;;;;;;5.93;1.80;;;;;;;12.27;52.62;98822.38;125810;1101;102995;-75
2021/05/27 04:09:34;;;;;;;5.23;1.40;;;;;;;12.30;52.57;98823.96;125909;1096;103230;-76
2021/05/27 04:17:46;;;;;;;4.33;1.50;;;;;;;12.46;52.57;98815.51;125772;1101;102990;-72
2021/05/27 04:20:16;;;;;;;3.80;1.60;;;;;;;12.51;52.71;98824.80;125828;1102;103013;-70
2021/05/27 04:22:47;;;;;;;2.63;1.43;;;;;;;12.56;52.58;98818.23;125599;1104;103115;-74
2021/05/27 04:25:22;;;;;;;3.10;1.40;;;;;;;12.61;52.61;98811.55;125541;1104;103011;-73
2021/05/27 04:27:53;;;;;;;;;;;;;;;12.67;52.98;98815.50;125611;1104;103075;-73
2021/05/27 04:30:27;;;;;;;2.53;1.43;;;;;;;12.71;52.79;98813.41;125566;1104;103081;-74
2021/05/27 04:33:07;;;;;;;5.60;1.60;;;;;;;12.76;52.85;98814.72;125980;1101;102990;-75
2021/05/27 04:35:42;;;;;;;6.27;1.80;;;;;;;12.84;52.76;98821.23;125589;1104;103570;-74
2021/05/27 04:38:15;;;;;;;3.55;1.70;;;;;;;12.89;52.89;98821.65;125550;1104;103056;-73
2021/05/27 04:40:49;;;;;;;3.60;1.53;;;;;;;12.94;52.81;98819.43;125573;1096;103046;-73
2021/05/27 04:43:20;;;;;;;4.13;1.50;;;;;;;12.99;52.88;98816.38;125614;1104;103519;-74
2021/05/27 04:45:49;;;;;;;3.37;1.40;;;;;;;13.04;53.14;98814.16;125924;1101;103099;-73
2021/05/27 04:48:19;;;;;;;2.93;1.50;;;;;;;13.10;52.71;98821.61;125624;1096;103141;-78
2021/05/27 04:50:53;;;;;;;3.30;1.53;;;;;;;13.17;52.59;98819.27;125895;1097;103119;-76
2021/05/27 04:53:26;;;;;;;5.40;2.08;;;;;;;13.22;52.58;98822.38;125979;1101;102988;-76
2021/05/27 04:55:55;;;;;;;5.30;1.35;;;;;;;13.28;52.62;98819.14;125914;1101;102984;-77
2021/05/27 04:58:23;;;;;;;10.83;1.83;;;;;;;13.33;52.66;98814.25;125921;1097;102987;-78
2021/05/27 05:00:52;;;;;;;7.30;1.67;;;;;;;13.39;52.81;98821.72;125960;1101;103085;-79
2021/05/27 05:03:20;;;;;;;1.80;1.25;;;;;;;13.46;52.92;98819.38;125795;1101;103008;-79
2021/05/27 05:05:48;;;;;;;6.10;1.60;;;;;;;13.53;53.04;98825.03;125993;1101;103068;-79
2021/05/27 05:08:21;;;;;;;3.45;1.40;;;;;;;13.58;52.98;98814.78;126030;1101;103059;-81
2021/05/27 05:10:49;;;;;;;6.30;2.10;;;;;;;13.64;53.07;98824.07;125976;1097;103007;-80
2021/05/27 05:13:20;;;;;;;4.33;1.70;;;;;;;13.69;52.77;98819.16;126186;1096;103131;-81
2021/05/27 05:15:49;;;;;;;5.20;1.70;;;;;;;13.75;52.99;98818.61;126146;1101;102987;-80
2021/05/27 05:18:21;;;;;;;5.48;1.73;;;;;;;13.80;52.91;98823.53;126231;1101;103053;-76
2021/05/27 05:20:49;;;;;;;6.40;2.20;;;;;;;13.88;53.03;98825.50;125609;1096;103072;-78
2021/05/27 05:23:19;;;;;;;6.10;1.70;;;;;;;13.92;52.99;98827.78;125709;1102;103443;-81
2021/05/27 05:25:47;;;;;;;5.83;1.90;;;;;;;13.97;52.89;98825.54;126118;1101;103096;-79
2021/05/27 05:28:16;;;;;;;5.10;1.67;;;;;;;14.05;53.02;98829.34;125935;1096;102924;-75
2021/05/27 05:30:45;;;;;;;5.00;1.73;;;;;;;14.10;53.09;98819.91;125964;1101;103009;-78
2021/05/27 05:33:16;;;;;;;5.07;1.53;;;;;;;14.18;53.08;98813.84;125993;1101;103014;-74
2021/05/27 05:35:45;;;;;;;4.87;1.80;;;;;;;14.24;53.04;98829.34;125976;1101;102987;-75
2021/05/27 05:38:13;;;;;;;5.95;1.80;;;;;;;14.31;53.03;98832.28;126011;1101;103110;-75
2021/05/27 05:40:41;;;;;;;6.57;1.57;;;;;;;14.37;53.16;98826.36;125984;1101;103072;-75
2021/05/27 05:43:09;;;;;;;6.73;1.60;;;;;;;14.45;53.09;98823.00;126003;1101;103003;-78
2021/05/27 05:45:38;;;;;;;7.50;2.00;;;;;;;14.55;53.16;98828.33;126031;1101;103504;-76
2021/05/27 05:48:08;;;;;;;3.83;2.00;;;;;;;14.64;53.19;98827.48;126033;1096;102984;-74
2021/05/27 05:50:49;;;;;;;4.17;1.73;;;;;;;14.72;53.05;98822.25;126075;1101;103091;-75
2021/05/27 05:53:24;;;;;;;5.17;1.80;;;;;;;14.85;53.11;98818.42;125899;1101;103078;-75
2021/05/27 05:55:59;;;;;;;4.23;1.80;;;;;;;14.96;53.22;98830.79;125701;1101;103006;-76
2021/05/27 05:58:27;;;;;;;8.13;2.33;;;;;;;15.10;53.11;98826.80;126025;1101;103010;-74
2021/05/27 06:00:56;;;;;;;4.93;1.93;;;;;;;15.21;53.03;98821.26;125997;1101;103145;-76
2021/05/27 06:03:24;;;;;;;6.70;1.67;;;;;;;15.35;53.12;98829.81;125969;1101;103056;-77
2021/05/27 06:05:55;;;;;;;6.97;2.17;;;;;;;15.48;53.02;98823.11;125793;1101;103156;-80
2021/05/27 06:08:23;;;;;;;3.40;1.53;;;;;;;15.62;52.99;98823.61;126000;1101;103479;-79
2021/05/27 06:10:52;;;;;;;1.77;1.17;;;;;;;15.76;53.02;98824.92;125868;1101;103179;-78
2021/05/27 06:13:23;;;;;;;3.43;1.33;;;;;;;15.88;53.03;98833.63;125940;1101;102984;-78
2021/05/27 06:15:51;;;;;;;3.95;1.90;;;;;;;16.02;52.73;98826.88;126008;1101;102976;-81
2021/05/27 06:18:19;;;;;;;4.87;1.87;;;;;;;16.17;53.03;98830.73;126120;1101;103478;-81
2021/05/27 06:20:47;;;;;;;4.67;1.63;;;;;;;16.37;52.69;98826.05;126166;1096;103052;-82
2021/05/27 06:23:15;;;;;;;7.67;2.33;;;;;;;16.67;52.55;98834.66;126132;1101;103009;-78
2021/05/27 06:25:42;;;;;;;2.93;1.40;;;;;;;17.01;52.18;98824.15;125963;1101;102982;-78
2021/05/27 06:28:09;;;;;;;2.55;1.30;;;;;;;17.18;52.08;98830.45;125997;1101;103085;-82
2021/05/27 06:30:36;;;;;;;5.13;1.53;;;;;;;17.24;52.43;98837.88;125634;1101;103045;-81
2021/05/27 06:33:04;;;;;;;2.47;1.60;;;;;;;17.36;52.40;98836.60;126171;1101;103019;-79
2021/05/27 06:35:31;;;;;;;5.37;1.47;;;;;;;17.47;52.76;98834.64;126113;1101;103036;-75
2021/05/27 06:37:59;;;;;;;4.85;1.70;;;;;;;17.54;52.65;98827.58;125954;1101;103097;-78
2021/05/27 06:40:32;;;;;;;2.00;1.25;;;;;;;17.67;52.28;98829.83;125974;1101;103000;-76
2021/05/27 06:43:00;;;;;;;2.63;1.60;;;;;;;17.75;52.34;98823.63;125928;1101;103507;-76
2021/05/27 06:45:27;;;;;;;5.73;1.20;;;;;;;17.82;52.54;98821.97;125953;1101;103051;-76
2021/05/27 06:47:59;;;;;;;7.07;1.80;;;;;;;17.89;52.20;98825.69;125951;1101;103011;-78
2021/05/27 06:50:39;;;;;;;3.37;1.60;;;;;;;18.33;51.49;98829.14;125968;1096;103005;-76
2021/05/27 06:53:19;;;;;;;7.00;1.33;;;;;;;19.54;50.24;98821.99;125881;1101;103076;-76
2021/05/27 06:55:48;;;;;;;4.00;1.57;;;;;;;21.23;49.39;98820.36;125972;1096;103198;-77
2021/05/27 06:58:18;;;;;;;5.53;1.43;;;;;;;22.95;49.45;98817.17;125715;1101;103067;-73
2021/05/27 07:00:46;;;;;;;3.83;1.40;;;;;;;24.82;49.80;98806.08;125918;1101;103020;-76
2021/05/27 07:03:17;;;;;;;7.77;1.63;;;;;;;26.53;49.61;98817.69;125986;1101;102946;-77
2021/05/27 07:05:48;;;;;;;2.47;1.07;;;;;;;28.06;49.42;98812.69;125919;1101;103601;-75
2021/05/27 07:08:15;;;;;;;5.47;1.70;;;;;;;29.49;49.73;98818.33;125957;1101;102982;-74
2021/05/27 07:10:44;;;;;;;5.70;1.50;;;;;;;30.89;49.21;98810.70;126005;1101;103076;-77
2021/05/27 07:13:15;;;;;;;9.10;2.90;;;;;;;32.07;48.76;98814.13;125960;1101;103020;-75
2021/05/27 07:15:43;;;;;;;6.37;1.70;;;;;;;32.95;48.51;98816.84;126024;1101;102952;-75
2021/05/27 07:18:10;;;;;;;2.30;1.33;;;;;;;33.74;47.81;98821.66;125952;1096;103068;-74
2021/05/27 07:20:38;;;;;;;1.77;1.53;;;;;;;34.18;47.48;98812.95;125595;1101;103190;-74
2021/05/27 07:23:06;;;;;;;4.10;1.50;;;;;;;34.31;47.21;98824.53;125925;1101;103030;-74
2021/05/27 07:25:36;;;;;;;2.07;1.37;;;;;;;34.11;47.01;98818.72;125997;1101;103085;-79
2021/05/27 07:28:08;;;;;;;4.80;1.87;;;;;;;33.87;46.37;98823.06;126067;1101;103428;-72
2021/05/27 07:30:35;;;;;;;1.97;1.77;;;;;;;34.18;45.50;98832.27;126025;1101;102985;-73
2021/05/27 07:33:03;;;;;;;3.93;1.43;;;;;;;34.57;45.58;98825.41;125585;1101;103112;-72
2021/05/27 07:35:31;;;;;;;3.37;1.67;;;;;;;35.20;45.06;98824.25;125607;1102;103142;-72
2021/05/27 07:38:01;;;;;;;5.33;1.67;;;;;;;35.50;44.15;98830.80;126124;1101;102984;-74
2021/05/27 07:40:32;;;;;;;2.67;1.30;;;;;;;35.76;42.93;98828.75;126009;1101;103010;-75
2021/05/27 07:42:59;;;;;;;2.97;1.27;;;;;;;36.44;42.75;98836.63;125973;1096;103017;-74
2021/05/27 07:45:27;;;;;;;4.40;1.33;;;;;;;36.68;41.67;98833.16;125955;1101;103011;-74
2021/05/27 07:47:58;;;;;;;2.47;1.30;;;;;;;36.91;41.68;98840.68;125820;1096;103064;-74
2021/05/27 07:50:25;;;;;;;3.23;1.63;;;;;;;37.51;41.12;98833.15;125996;1101;102975;-72
2021/05/27 07:52:54;;;;;;;4.80;1.50;;;;;;;37.74;40.68;98834.24;125939;1096;102981;-73
2021/05/27 07:55:27;;;;;;;9.97;1.63;;;;;;;37.21;40.28;98846.23;125950;1101;102981;-72
2021/05/27 07:57:54;;;;;;;4.70;1.67;;;;;;;36.55;39.78;98849.32;126041;1097;103554;-71
2021/05/27 08:00:21;;;;;;;1.97;1.27;;;;;;;35.40;38.62;98851.00;125904;1101;103270;-72
2021/05/27 08:02:50;;;;;;;1.75;1.20;;;;;;;34.36;37.25;98852.98;125951;1101;103111;-72
2021/05/27 08:05:22;;;;;;;5.63;1.40;;;;;;;32.89;37.27;98856.45;126083;1101;103116;-74
2021/05/27 08:07:51;;;;;;;2.93;1.30;;;;;;;32.02;36.52;98855.33;125917;1096;103454;-75
2021/05/27 08:10:23;;;;;;;2.80;1.40;;;;;;;31.25;36.59;98860.69;125947;1101;103008;-74
2021/05/27 08:12:52;;;;;;;3.27;1.80;;;;;;;31.14;35.89;98864.33;125945;1096;103045;-75
2021/05/27 08:15:20;;;;;;;4.87;1.80;;;;;;;30.45;35.62;98872.55;125931;1101;103076;-75
2021/05/27 08:17:48;;;;;;;5.00;1.50;;;;;;;29.59;35.52;98870.57;126000;1101;102974;-75
2021/05/27 08:20:17;;;;;;;4.43;1.80;;;;;;;28.91;35.73;98868.23;125572;1097;103064;-76
2021/05/27 08:22:45;;;;;;;5.53;1.57;;;;;;;28.02;34.89;98871.61;125929;1101;103006;-75
2021/05/27 08:25:14;;;;;;;3.17;1.70;;;;;;;27.39;34.63;98870.88;126017;1101;103077;-75
2021/05/27 08:27:42;;;;;;;4.47;1.60;;;;;;;26.88;34.67;98874.53;126035;1096;103005;-75
2021/05/27 08:30:12;;;;;;;5.43;1.47;;;;;;;26.54;34.64;98871.17;126093;1096;103052;-72
2021/05/27 08:32:41;;;;;;;1.73;1.37;;;;;;;26.31;34.82;98882.65;125949;1101;102986;-74
2021/05/27 08:35:14;;;;;;;6.77;2.00;;;;;;;26.08;34.52;98880.47;125902;1095;103137;-73
2021/05/27 08:37:42;;;;;;;5.70;2.13;;;;;;;25.71;34.24;98872.88;125936;1101;103080;-73
2021/05/27 08:40:15;;;;;;;5.17;1.50;;;;;;;25.89;34.00;98874.04;125950;1101;103538;-74
2021/05/27 08:42:43;;;;;;;3.83;1.48;;;;;;;26.12;34.16;98870.78;125942;1101;103071;-72
2021/05/27 08:45:15;;;;;;;4.40;1.93;;;;;;;26.40;33.97;98866.89;125977;1101;103079;-73
2021/05/27 08:47:45;;;;;;;7.87;1.70;;;;;;;26.33;34.05;98874.27;125907;1101;102984;-74
2021/05/27 08:50:13;;;;;;;4.55;1.95;;;;;;;26.12;34.27;98868.91;125960;1101;103109;-80
2021/05/27 08:52:43;;;;;;;5.20;1.93;;;;;;;25.92;34.02;98879.91;126147;1101;102981;-73
2021/05/27 08:55:14;;;;;;;6.13;1.97;;;;;;;25.67;34.08;98877.08;125959;1096;103003;-71
2021/05/27 08:57:43;;;;;;;10.73;3.10;;;;;;;25.35;34.21;98879.66;125942;1101;103078;-73
2021/05/27 09:00:15;;;;;;;3.17;1.33;;;;;;;25.12;33.92;98881.78;125670;1101;103065;-79
2021/05/27 09:02:57;;;;;;;6.03;2.00;;;;;;;24.86;34.25;98881.81;125771;1101;103529;-74
2021/05/27 09:05:32;;;;;;;3.57;1.90;;;;;;;24.65;33.40;98884.50;125658;1101;103039;-74
2021/05/27 09:08:09;;;;;;;5.00;1.93;;;;;;;24.26;33.61;98877.93;125947;1096;103221;-75
2021/05/27 09:10:47;;;;;;;4.07;1.80;;;;;;;24.44;33.62;98884.66;125992;1101;103026;-75
2021/05/27 09:13:20;;;;;;;3.67;1.60;;;;;;;24.90;33.60;98881.17;125718;1101;103132;-75
2021/05/27 09:16:03;;;;;;;3.63;1.67;;;;;;;25.34;33.99;98883.42;125855;1096;103493;-74
2021/05/27 09:18:33;;;;;;;;;;;;;;;25.46;33.93;98883.63;125949;1101;103012;-76
2021/05/27 09:21:08;;;;;;;4.90;2.17;;;;;;;25.41;33.98;98881.53;125966;1101;102992;-75
2021/05/27 09:23:55;;;;;;;4.07;1.90;;;;;;;25.44;34.30;98888.45;125945;1101;103521;-74
2021/05/27 09:26:23;;;;;;;7.33;2.10;;;;;;;25.38;34.40;98879.23;125908;1101;102975;-74
2021/05/27 09:28:52;;;;;;;4.93;2.17;;;;;;;25.39;34.36;98883.63;126014;1101;102979;-74
2021/05/27 09:31:24;;;;;;;5.93;2.00;;;;;;;25.33;34.07;98879.03;125908;1095;103105;-73
2021/05/27 09:34:06;;;;;;;5.07;1.80;;;;;;;25.10;34.16;98881.16;125961;1101;103102;-73
2021/05/27 09:36:35;;;;;;;6.40;1.97;;;;;;;24.56;33.82;98877.58;125969;1101;103062;-74
2021/05/27 09:39:08;;;;;;;6.13;1.87;;;;;;;24.10;33.77;98876.43;125937;1096;103112;-75
2021/05/27 09:41:36;;;;;;;6.90;2.20;;;;;;;23.92;34.22;98879.69;126048;1101;103068;-74
2021/05/27 09:44:04;;;;;;;6.53;2.20;;;;;;;23.83;34.44;98880.92;125925;1096;103081;-75
2021/05/27 09:47:06;;;;;;;5.53;1.60;;;;;;;23.66;34.12;98878.55;125993;1101;103071;-75
2021/05/27 09:50:02;;;;;;;4.73;2.17;;;;;;;23.41;34.29;98884.48;125839;1101;103076;-74
2021/05/27 09:52:42;;;;;;;6.50;2.17;;;;;;;23.13;34.01;98887.19;125948;1101;103230;-74
2021/05/27 09:55:19;;;;;;;5.30;2.17;;;;;;;22.80;33.89;98893.20;125966;1102;102981;-71
2021/05/27 09:57:49;;;;;;;4.45;2.10;;;;;;;22.58;34.27;98893.20;125945;1101;103113;-73
2021/05/27 10:00:21;;;;;;;6.90;2.10;;;;;;;22.50;34.79;98893.31;125944;1096;103059;-72
2021/05/27 10:02:50;;;;;;;5.33;2.10;;;;;;;22.47;34.19;98897.27;125967;1101;102389;-73
2021/05/27 10:05:21;;;;;;;6.37;2.30;;;;;;;22.25;33.86;98888.25;125885;1096;103206;-74
2021/05/27 10:07:50;;;;;;;8.35;2.05;;;;;;;22.09;33.98;98895.58;125678;1101;103067;-75
2021/05/27 10:10:42;;;;;;;6.73;1.97;;;;;;;21.94;34.15;98897.50;125752;1101;103006;-75
2021/05/27 10:13:17;;;;;;;6.93;2.27;;;;;;;21.79;34.50;98898.34;125669;1101;103006;-75
2021/05/27 10:15:46;;;;;;;6.17;2.17;;;;;;;21.68;34.63;98899.67;125678;1101;103206;-76
2021/05/27 10:18:21;;;;;;;5.50;2.07;;;;;;;21.61;34.74;98892.44;125888;1101;103061;-74
2021/05/27 10:20:53;;;;;;;4.27;1.93;;;;;;;21.58;34.57;98900.97;125998;1096;102987;-75
2021/05/27 10:23:24;;;;;;;8.90;2.50;;;;;;;21.51;34.47;98892.73;125998;1101;103079;-76
2021/05/27 10:25:56;;;;;;;4.13;1.88;;;;;;;21.42;34.94;98902.82;125578;1096;102978;-74
2021/05/27 10:28:30;;;;;;;4.95;1.55;;;;;;;21.45;34.95;98899.74;125955;1101;103161;-73
2021/05/27 10:31:02;;;;;;;5.30;2.05;;;;;;;21.50;35.16;98897.32;125960;1101;103005;-74
2021/05/27 10:33:42;;;;;;;4.70;2.10;;;;;;;21.49;34.81;98900.20;125940;1101;102953;-73
2021/05/27 10:36:15;;;;;;;5.87;2.33;;;;;;;21.41;34.61;98887.61;125943;1101;103046;-82
2021/05/27 10:38:48;;;;;;;5.30;2.00;;;;;;;21.35;35.25;98889.20;126013;1096;102980;-76
2021/05/27 10:41:42;;;;;;;7.07;2.50;;;;;;;21.38;35.33;98882.57;125935;1096;103104;-75
2021/05/27 10:44:16;;;;;;;;;;;;;;;21.39;35.46;98890.52;125992;1101;102984;-68
2021/05/27 10:46:44;;;;;;;;;;;;;;;21.33;35.33;98888.55;125979;1101;102956;-68
2021/05/27 10:49:39;;;;;;;38.33;12.60;;;;;;;21.25;35.32;98884.05;125886;1096;103052;-70
2021/05/27 10:52:27;;;;;;;24.17;6.07;;;;;;;21.22;35.34;98883.59;125890;1101;103025;-67
2021/05/27 10:54:55;;;;;;;38.40;8.30;;;;;;;21.14;35.34;98879.12;125912;1101;102984;-69
2021/05/27 10:57:38;;;;;;;68.43;15.13;;;;;;;21.14;35.71;98879.12;125855;1101;103169;-70
2021/05/27 11:00:33;;;;;;;59.00;11.93;;;;;;;21.15;35.73;98886.21;125954;1101;103099;-68
2021/05/27 11:03:48;;;;;;;50.80;12.00;;;;;;;21.18;35.55;98883.14;125947;1101;103017;-67
2021/05/27 11:06:21;;;;;;;93.87;27.83;;;;;;;21.23;36.00;98880.69;125918;1101;102982;-68
2021/05/27 11:11:45;;;;;;;51.70;19.55;;;;;;;21.30;35.99;98871.84;125861;1101;103203;-67
2021/05/27 11:14:41;;;;;;;24.23;7.23;;;;;;;21.39;36.33;98862.61;125911;1101;103469;-66
2021/05/27 11:17:12;;;;;;;35.33;11.17;;;;;;;21.54;36.43;98868.01;125563;1101;103046;-68
2021/05/27 11:19:52;;;;;;;47.17;17.00;;;;;;;21.60;36.38;98863.73;125892;1097;103113;-66
2021/05/27 11:22:38;;;;;;;25.20;8.08;;;;;;;21.69;36.55;98863.46;125942;1096;103016;-71
2021/05/27 11:27:39;;;;;;;37.23;10.50;;;;;;;21.78;36.74;98864.19;125825;1101;103006;-69
2021/05/27 11:30:19;;;;;;;14.97;4.50;;;;;;;21.80;36.80;98858.59;125923;1101;102981;-69
2021/05/27 11:33:23;;;;;;;21.93;6.17;;;;;;;21.76;36.37;98858.13;126027;1101;102975;-69
2021/05/27 11:35:57;;;;;;;17.40;4.20;;;;;;;21.74;36.61;98852.05;125630;1101;103059;-69
2021/05/27 11:38:32;;;;;;;13.63;4.18;;;;;;;21.72;36.50;98851.41;125761;1101;103052;-70
2021/05/27 11:41:10;;;;;;;9.97;2.60;;;;;;;21.62;36.45;98850.85;125871;1101;103229;-68
2021/05/27 11:43:43;;;;;;;16.40;4.20;;;;;;;21.52;36.57;98849.27;125844;1097;103406;-70
2021/05/27 11:46:19;;;;;;;;;;;;;;;21.42;36.76;98844.13;125943;1101;103094;-69
2021/05/27 11:51:34;;;;;;;15.57;3.93;;;;;;;21.42;36.96;98838.71;125853;1101;103068;-70
2021/05/27 11:54:13;;;;;;;8.70;3.03;;;;;;;21.51;37.25;98834.06;125740;1101;103109;-67
2021/05/27 11:56:49;;;;;;;9.80;2.30;;;;;;;21.61;37.07;98838.31;125713;1101;102994;-66